Terminal Aerodrome Forecast
Issued by NWS Twin Cities, MN

Home | Current Version | Previous Version | Graphics & Text | Print | Product List | Glossary On
Versions: 1 2 3 4 5 6 7 8 9 10 11 12 13 14 15 16 17 18 19 20 21 22 23 24 25 26 27 28 29 30
000
FTUS43 KMPX 221341 AAA
TAFMSP
TAF AMD
KMSP 221341Z 2214/2318 35008KT P6SM SCT110 BKN250
     FM221600 VRB03KT P6SM VCSH SCT015 BKN040
     FM221800 28007KT P6SM SCT040
     FM222000 31014G23KT P6SM VCSH SCT050
     FM230000 32009KT P6SM SKC=

USA.gov is the U.S. government's official web portal to all federal, state and local government web resources and services.